createdAt,value
2023-02-22T00:01:34.261Z,32.10
2023-02-22T00:04:02.793Z,33.10
2023-02-22T00:06:31.339Z,29.90
2023-02-22T00:08:58.801Z,38.50
2023-02-22T00:11:26.271Z,29.60
2023-02-22T00:13:57.550Z,32.90
2023-02-22T00:16:25.949Z,32.80
2023-02-22T00:18:53.553Z,34.50
2023-02-22T00:21:20.787Z,30.60
2023-02-22T00:23:48.202Z,31.90
2023-02-22T00:26:18.592Z,31.50
2023-02-22T00:28:49.559Z,34.80
2023-02-22T00:31:16.724Z,28.80
2023-02-22T00:33:44.831Z,32.30
2023-02-22T00:36:12.739Z,34.30
2023-02-22T00:38:40.181Z,39.60
2023-02-22T00:41:07.610Z,36.40
2023-02-22T00:43:35.065Z,31.40
2023-02-22T00:46:01.962Z,35.30
2023-02-22T00:48:29.385Z,35.50
2023-02-22T00:50:56.556Z,36.30
2023-02-22T00:53:25.308Z,36.50
2023-02-22T00:55:52.757Z,45.90
2023-02-22T00:58:19.604Z,37.40
2023-02-22T01:00:46.845Z,47.80
2023-02-22T01:03:15.681Z,42.50
2023-02-22T01:05:43.205Z,45.50
2023-02-22T01:08:11.485Z,50.60
2023-02-22T01:10:38.936Z,49.90
2023-02-22T01:13:09.423Z,41.10
2023-02-22T01:15:37.761Z,42.10
2023-02-22T01:18:05.394Z,56.40
2023-02-22T01:20:32.853Z,46.90
2023-02-22T01:23:01.139Z,45.00
2023-02-22T01:25:30.223Z,47.10
2023-02-22T01:27:58.706Z,39.90
2023-02-22T01:30:27.307Z,39.40
2023-02-22T01:32:54.071Z,39.70
2023-02-22T01:35:22.518Z,46.50
2023-02-22T01:37:51.006Z,42.20
2023-02-22T01:40:23.569Z,45.20
2023-02-22T01:42:54.909Z,46.80
2023-02-22T01:45:31.182Z,51.80
2023-02-22T01:48:21.160Z,42.20
2023-02-22T01:50:54.559Z,42.30
2023-02-22T01:53:24.070Z,42.60
2023-02-22T01:55:51.514Z,42.00
2023-02-22T01:58:22.052Z,38.50
2023-02-22T02:00:48.902Z,43.50
2023-02-22T02:03:18.804Z,43.10
2023-02-22T02:05:45.891Z,57.30
2023-02-22T02:08:17.201Z,46.50
2023-02-22T02:10:44.453Z,49.70
2023-02-22T02:13:11.708Z,44.30
2023-02-22T02:15:38.751Z,45.30
2023-02-22T02:18:07.438Z,60.40
2023-02-22T02:20:52.507Z,58.50
2023-02-22T02:23:37.167Z,42.70
2023-02-22T02:26:13.014Z,41.50
2023-02-22T02:28:49.076Z,38.00
2023-02-22T02:31:22.904Z,40.70
2023-02-22T02:34:08.776Z,44.30
2023-02-22T02:36:55.078Z,38.10
2023-02-22T02:39:24.787Z,56.10
2023-02-22T02:41:52.233Z,46.10
2023-02-22T02:44:28.605Z,42.60
2023-02-22T02:47:02.942Z,44.10
2023-02-22T02:49:37.548Z,47.00
2023-02-22T02:52:07.463Z,42.90
2023-02-22T02:54:37.250Z,42.30
2023-02-22T02:57:04.219Z,37.50
2023-02-22T02:59:31.073Z,36.20
2023-02-22T03:02:04.932Z,40.10
2023-02-22T03:04:34.167Z,39.20
2023-02-22T03:07:19.854Z,39.50
2023-02-22T03:09:55.089Z,37.10
2023-02-22T03:12:22.347Z,41.50
2023-02-22T03:15:08.226Z,154.80
2023-02-22T03:17:38.155Z,103.50
2023-02-22T03:20:09.862Z,62.40
2023-02-22T03:22:44.530Z,52.50
2023-02-22T03:25:15.673Z,49.90
2023-02-22T03:27:46.534Z,67.30
2023-02-22T03:30:19.844Z,64.00
2023-02-22T03:32:49.517Z,51.20
2023-02-22T03:35:23.328Z,51.80
2023-02-22T03:37:54.108Z,45.50
2023-02-22T03:40:26.833Z,59.60
2023-02-22T03:43:02.285Z,67.60
2023-02-22T03:45:30.343Z,67.20
2023-02-22T03:48:03.846Z,47.00
2023-02-22T03:50:35.639Z,44.80
2023-02-22T03:53:03.576Z,37.50
2023-02-22T03:55:31.852Z,40.60
2023-02-22T03:57:59.932Z,44.60
2023-02-22T04:00:30.202Z,38.80
2023-02-22T04:02:57.309Z,38.00
2023-02-22T04:05:25.364Z,38.00
2023-02-22T04:07:53.350Z,45.90
2023-02-22T04:10:20.687Z,37.90
2023-02-22T04:12:47.530Z,45.50
2023-02-22T04:15:16.827Z,39.70
2023-02-22T04:17:44.688Z,44.50
2023-02-22T04:20:14.008Z,39.10
2023-02-22T04:22:59.933Z,39.90
2023-02-22T04:25:26.736Z,37.50
2023-02-22T04:27:53.774Z,34.00
2023-02-22T04:30:30.667Z,34.20
2023-02-22T04:32:57.736Z,38.40
2023-02-22T04:35:24.822Z,32.90
2023-02-22T04:37:52.342Z,33.40
2023-02-22T04:40:19.336Z,39.50
2023-02-22T04:42:47.645Z,51.30
2023-02-22T04:45:14.984Z,70.20
2023-02-22T04:47:41.691Z,72.10
2023-02-22T04:50:09.504Z,68.20
2023-02-22T04:52:36.321Z,50.00
2023-02-22T04:55:03.444Z,35.40
2023-02-22T04:57:30.824Z,35.40
2023-02-22T04:59:57.666Z,36.80
2023-02-22T05:02:25.367Z,30.10
2023-02-22T05:04:52.082Z,30.50
2023-02-22T05:07:18.775Z,30.50
2023-02-22T05:09:45.462Z,31.00
2023-02-22T05:12:12.243Z,27.50
2023-02-22T05:14:39.134Z,27.60
2023-02-22T05:17:06.389Z,25.40
2023-02-22T05:19:33.227Z,26.60
2023-02-22T05:22:00.433Z,26.50
2023-02-22T05:24:27.317Z,23.90
2023-02-22T05:26:55.194Z,27.20
2023-02-22T05:29:22.032Z,24.40
2023-02-22T05:31:48.805Z,25.90
2023-02-22T05:34:16.166Z,27.00
2023-02-22T05:36:42.973Z,29.70
2023-02-22T05:39:09.821Z,29.00
2023-02-22T05:41:36.655Z,40.90
2023-02-22T05:44:04.104Z,45.00
2023-02-22T05:46:30.925Z,44.60
2023-02-22T05:48:57.831Z,46.70
2023-02-22T05:51:25.051Z,42.80
2023-02-22T05:53:52.927Z,50.10
2023-02-22T05:56:27.031Z,38.20
2023-02-22T05:58:53.722Z,37.90
2023-02-22T06:01:20.804Z,38.00
2023-02-22T06:03:48.853Z,40.60
2023-02-22T06:06:16.346Z,31.70
2023-02-22T06:08:43.789Z,33.60
2023-02-22T06:11:11.047Z,29.40
2023-02-22T06:13:37.883Z,27.70
2023-02-22T06:16:05.216Z,30.50
2023-02-22T06:18:32.395Z,32.70
2023-02-22T06:20:59.850Z,28.30
2023-02-22T06:23:27.116Z,27.80
2023-02-22T06:25:54.048Z,29.30
2023-02-22T06:28:20.992Z,28.30
2023-02-22T06:30:47.892Z,30.10
2023-02-22T06:33:14.678Z,27.50
2023-02-22T06:35:41.520Z,33.40
2023-02-22T06:38:08.354Z,28.90
2023-02-22T06:40:35.202Z,28.20
2023-02-22T06:43:02.036Z,30.00
2023-02-22T06:45:28.992Z,34.40
2023-02-22T06:47:55.938Z,34.30
2023-02-22T06:50:25.372Z,31.20
2023-02-22T06:52:52.103Z,26.80
2023-02-22T06:55:24.030Z,33.80
2023-02-22T06:57:51.100Z,28.80
2023-02-22T07:00:19.054Z,40.30
2023-02-22T07:02:46.607Z,37.30
2023-02-22T07:05:13.655Z,39.30
2023-02-22T07:07:40.710Z,37.60
2023-02-22T07:10:08.781Z,43.30
2023-02-22T07:12:35.642Z,48.00
2023-02-22T07:15:02.463Z,116.20
2023-02-22T07:17:29.223Z,115.50
2023-02-22T07:19:55.904Z,78.10
2023-02-22T07:22:22.788Z,64.70
2023-02-22T07:24:49.630Z,55.10
2023-02-22T07:27:17.865Z,48.10
2023-02-22T07:29:44.955Z,57.50
2023-02-22T07:32:11.857Z,64.90
2023-02-22T07:34:38.637Z,47.90
2023-02-22T07:37:05.487Z,50.70
2023-02-22T07:39:32.319Z,54.30
2023-02-22T07:41:59.497Z,64.40
2023-02-22T07:44:28.712Z,59.70
2023-02-22T07:46:55.515Z,61.50
2023-02-22T07:49:22.356Z,69.60
2023-02-22T07:51:49.008Z,68.40
2023-02-22T07:54:15.838Z,73.80
2023-02-22T07:56:46.659Z,72.50
2023-02-22T07:59:13.747Z,64.00
2023-02-22T08:01:40.943Z,71.30
2023-02-22T08:04:08.169Z,66.10
2023-02-22T08:06:35.177Z,64.20
2023-02-22T08:09:02.005Z,54.80
2023-02-22T08:11:28.854Z,55.00
2023-02-22T08:13:55.697Z,61.20
2023-02-22T08:16:22.540Z,54.20
2023-02-22T08:18:49.226Z,54.20
2023-02-22T08:21:17.005Z,62.20
2023-02-22T08:23:44.136Z,60.80
2023-02-22T08:26:16.041Z,66.30
2023-02-22T08:28:43.424Z,52.70
2023-02-22T08:31:10.969Z,55.50
2023-02-22T08:33:37.807Z,55.30
2023-02-22T08:36:05.066Z,53.50
2023-02-22T08:38:34.084Z,52.80
2023-02-22T08:41:00.759Z,58.60
2023-02-22T08:43:28.583Z,54.10
2023-02-22T08:45:57.466Z,57.40
2023-02-22T08:48:24.804Z,56.60
2023-02-22T08:50:52.071Z,55.10
2023-02-22T08:53:19.314Z,66.50
2023-02-22T08:55:46.142Z,62.00
2023-02-22T08:58:12.991Z,55.10
2023-02-22T09:00:40.850Z,56.20
2023-02-22T09:03:09.954Z,63.90
2023-02-22T09:05:36.804Z,58.50
2023-02-22T09:08:04.245Z,56.10
2023-02-22T09:10:32.112Z,52.30
2023-02-22T09:13:01.300Z,49.60
2023-02-22T09:15:28.552Z,66.00
2023-02-22T09:17:55.931Z,48.70
2023-02-22T09:20:23.775Z,50.10
2023-02-22T09:22:50.636Z,54.30
2023-02-22T09:25:18.230Z,45.80
2023-02-22T09:27:48.105Z,59.60
2023-02-22T09:30:24.104Z,45.90
2023-02-22T09:32:54.780Z,54.30
2023-02-22T09:35:27.585Z,58.00
2023-02-22T09:37:58.910Z,52.60
2023-02-22T09:40:33.132Z,45.60
2023-02-22T09:42:59.977Z,53.50
2023-02-22T09:45:52.849Z,46.00
2023-02-22T09:48:22.374Z,48.60
2023-02-22T09:50:51.249Z,44.60
2023-02-22T09:53:18.476Z,46.40
2023-02-22T09:55:48.184Z,45.00
2023-02-22T09:58:15.028Z,46.20
2023-02-22T10:00:43.949Z,54.10
2023-02-22T10:03:16.725Z,52.80
2023-02-22T10:05:53.112Z,47.30
2023-02-22T10:08:20.627Z,47.90
2023-02-22T10:10:53.278Z,46.60
2023-02-22T10:13:22.905Z,44.70
2023-02-22T10:15:58.768Z,42.00
2023-02-22T10:18:25.602Z,43.90
2023-02-22T10:20:52.452Z,48.90
2023-02-22T10:23:22.934Z,42.60
2023-02-22T10:25:52.725Z,51.90
2023-02-22T10:28:24.990Z,46.70
2023-02-22T10:30:56.213Z,39.90
2023-02-22T10:33:26.709Z,37.70
2023-02-22T10:35:54.733Z,45.20
2023-02-22T10:38:25.740Z,45.40
2023-02-22T10:41:01.361Z,45.60
2023-02-22T10:43:28.445Z,58.50
2023-02-22T10:46:01.492Z,44.60
2023-02-22T10:48:30.539Z,47.20
2023-02-22T10:50:59.833Z,48.80
2023-02-22T10:53:27.450Z,45.80
2023-02-22T10:56:13.174Z,47.60
2023-02-22T10:58:41.445Z,42.50
2023-02-22T11:01:28.579Z,45.20
2023-02-22T11:03:58.282Z,38.40
2023-02-22T11:06:25.409Z,45.10
2023-02-22T11:08:58.096Z,40.70
2023-02-22T11:11:25.972Z,36.10
2023-02-22T11:13:56.439Z,43.60
2023-02-22T11:16:38.539Z,50.20
2023-02-22T11:19:08.616Z,41.80
2023-02-22T11:21:35.869Z,42.00
2023-02-22T11:24:08.841Z,44.60
2023-02-22T11:26:49.157Z,44.00
2023-02-22T11:29:21.822Z,41.10
2023-02-22T11:31:51.983Z,39.30
2023-02-22T11:34:31.654Z,51.40
2023-02-22T11:37:15.897Z,50.00
2023-02-22T11:39:44.006Z,35.80
2023-02-22T11:42:19.226Z,38.70
2023-02-22T11:44:47.281Z,37.00
2023-02-22T11:47:14.130Z,36.40
2023-02-22T11:49:43.427Z,37.20
2023-02-22T11:52:19.258Z,37.20
2023-02-22T11:55:04.864Z,40.00
2023-02-22T11:57:41.643Z,31.10
2023-02-22T12:00:16.360Z,34.10
2023-02-22T12:03:02.297Z,38.10
2023-02-22T12:05:59.805Z,37.40
2023-02-22T12:08:35.975Z,42.30
2023-02-22T12:11:18.449Z,30.30
2023-02-22T12:13:55.938Z,31.60
2023-02-22T12:16:29.493Z,32.50
2023-02-22T12:19:02.479Z,30.70
2023-02-22T12:21:30.577Z,33.50
2023-02-22T12:24:01.765Z,25.50
2023-02-22T12:26:31.072Z,29.30
2023-02-22T12:29:01.301Z,30.80
2023-02-22T12:31:28.709Z,29.00
2023-02-22T12:34:01.356Z,28.20
2023-02-22T12:36:36.172Z,29.00
2023-02-22T12:39:07.570Z,31.30
2023-02-22T12:41:38.546Z,26.70
2023-02-22T12:44:14.306Z,28.60
2023-02-22T12:46:43.687Z,22.90
2023-02-22T12:49:10.454Z,27.70
2023-02-22T12:51:37.300Z,30.00
2023-02-22T12:54:04.137Z,26.70
2023-02-22T12:56:34.456Z,26.80
2023-02-22T12:59:08.474Z,29.30
2023-02-22T13:01:38.852Z,27.60
2023-02-22T13:04:20.140Z,26.90
2023-02-22T13:06:56.933Z,25.70
2023-02-22T13:09:42.744Z,31.10
2023-02-22T13:12:15.319Z,23.90
2023-02-22T13:14:48.100Z,25.10
2023-02-22T13:17:24.569Z,29.30
2023-02-22T13:19:56.127Z,27.70
2023-02-22T13:22:26.647Z,28.60
2023-02-22T13:24:57.177Z,37.10
2023-02-22T13:27:27.349Z,25.80
2023-02-22T13:29:59.470Z,28.50
2023-02-22T13:32:45.467Z,30.80
2023-02-22T13:35:24.477Z,22.10
2023-02-22T13:38:00.619Z,25.10
2023-02-22T13:40:30.405Z,27.30
2023-02-22T13:43:12.106Z,23.80
2023-02-22T13:45:53.924Z,25.40
2023-02-22T13:48:28.152Z,24.80
2023-02-22T13:51:17.711Z,28.30
2023-02-22T13:53:47.477Z,24.40
2023-02-22T13:56:15.261Z,22.80
2023-02-22T13:58:52.896Z,24.20
2023-02-22T14:01:41.729Z,22.60
2023-02-22T14:04:27.340Z,21.80
2023-02-22T14:07:04.243Z,20.90
2023-02-22T14:09:45.806Z,20.30
2023-02-22T14:12:30.974Z,25.20
2023-02-22T14:15:22.058Z,29.40
2023-02-22T14:18:03.894Z,28.70
2023-02-22T14:20:37.685Z,20.90
2023-02-22T14:23:23.368Z,24.70
2023-02-22T14:25:50.869Z,26.30
2023-02-22T14:28:36.921Z,23.70
2023-02-22T14:31:07.676Z,23.40
2023-02-22T14:33:51.904Z,23.50
2023-02-22T14:36:37.497Z,24.30
2023-02-22T14:39:27.274Z,21.40
2023-02-22T14:41:57.610Z,23.80
2023-02-22T14:44:26.436Z,22.60
2023-02-22T14:46:55.976Z,22.80
2023-02-22T14:49:25.388Z,21.10
2023-02-22T14:51:55.513Z,23.40
2023-02-22T14:54:27.870Z,21.30
2023-02-22T14:57:14.939Z,27.80
2023-02-22T14:59:55.365Z,30.50
2023-02-22T15:02:26.127Z,26.50
2023-02-22T15:04:54.267Z,23.70
2023-02-22T15:07:27.649Z,24.10
2023-02-22T15:10:17.774Z,28.10
2023-02-22T15:12:51.601Z,21.50
2023-02-22T15:15:22.108Z,20.80
2023-02-22T15:17:53.432Z,23.10
2023-02-22T15:20:21.185Z,27.00
2023-02-22T15:22:50.147Z,24.50
2023-02-22T15:25:24.102Z,23.40
2023-02-22T15:27:51.657Z,23.60
2023-02-22T15:30:21.042Z,26.50
2023-02-22T15:33:03.070Z,31.00
2023-02-22T15:35:32.050Z,30.30
2023-02-22T15:38:00.398Z,30.60
2023-02-22T15:40:33.347Z,26.60
2023-02-22T15:43:02.339Z,35.60
2023-02-22T15:45:29.981Z,37.10
2023-02-22T15:47:58.768Z,29.10
2023-02-22T15:50:26.027Z,22.50
2023-02-22T15:53:00.428Z,21.00
2023-02-22T15:55:29.612Z,20.10
2023-02-22T15:58:24.098Z,20.60
2023-02-22T16:00:59.506Z,18.00
2023-02-22T16:03:33.610Z,20.20
2023-02-22T16:06:01.537Z,21.30
2023-02-22T16:08:52.672Z,19.40
2023-02-22T16:11:32.984Z,21.00
2023-02-22T16:14:07.814Z,19.10
2023-02-22T16:16:41.818Z,22.50
2023-02-22T16:19:17.787Z,22.70
2023-02-22T16:22:05.741Z,19.00
2023-02-22T16:24:34.163Z,20.70
2023-02-22T16:27:13.561Z,18.00
2023-02-22T16:29:40.605Z,17.60
2023-02-22T16:32:08.173Z,22.70
2023-02-22T16:34:35.745Z,21.20
2023-02-22T16:37:03.384Z,23.10
2023-02-22T16:39:31.565Z,31.80
2023-02-22T16:42:01.035Z,24.10
2023-02-22T16:44:28.544Z,20.50
2023-02-22T16:46:56.902Z,24.20
2023-02-22T16:49:27.066Z,37.00
2023-02-22T16:51:55.637Z,27.70
2023-02-22T16:54:30.731Z,55.30
2023-02-22T16:57:02.204Z,33.50
2023-02-22T16:59:32.290Z,28.70
2023-02-22T17:02:00.886Z,40.50
2023-02-22T17:04:29.672Z,43.40
2023-02-22T17:06:59.230Z,35.00
2023-02-22T17:09:27.358Z,36.80
2023-02-22T17:11:56.244Z,33.60
2023-02-22T17:14:27.368Z,34.10
2023-02-22T17:16:54.431Z,36.00
2023-02-22T17:19:23.326Z,117.20
2023-02-22T17:21:50.843Z,71.10
2023-02-22T17:24:21.370Z,48.70
2023-02-22T17:26:49.087Z,51.10
2023-02-22T17:29:18.754Z,64.70
2023-02-22T17:31:46.343Z,66.40
2023-02-22T17:34:13.389Z,73.60
2023-02-22T17:36:42.127Z,79.90
2023-02-22T17:39:11.179Z,67.10
2023-02-22T17:41:40.753Z,50.00
2023-02-22T17:44:09.994Z,41.30
2023-02-22T17:46:37.843Z,37.50
2023-02-22T17:49:05.306Z,35.80
2023-02-22T17:51:33.784Z,33.70
2023-02-22T17:54:00.872Z,34.90
2023-02-22T17:56:29.518Z,30.90
2023-02-22T17:58:57.795Z,34.60
2023-02-22T18:01:27.739Z,37.60
2023-02-22T18:03:56.305Z,39.80
2023-02-22T18:06:28.221Z,38.10
2023-02-22T18:08:56.900Z,38.90
2023-02-22T18:11:27.037Z,41.30
2023-02-22T18:13:56.477Z,52.60
2023-02-22T18:16:29.394Z,51.30
2023-02-22T18:18:58.910Z,45.70
2023-02-22T18:21:28.041Z,42.20
2023-02-22T18:23:58.132Z,46.70
2023-02-22T18:26:28.288Z,43.70
2023-02-22T18:28:56.553Z,52.60
2023-02-22T18:31:25.493Z,65.90
2023-02-22T18:33:54.551Z,60.20
2023-02-22T18:36:23.465Z,60.00
2023-02-22T18:38:55.620Z,71.40
2023-02-22T18:41:27.513Z,118.00
2023-02-22T18:43:55.712Z,111.30
2023-02-22T18:46:24.988Z,75.50
2023-02-22T18:48:54.877Z,86.80
2023-02-22T18:51:24.919Z,69.70
2023-02-22T18:53:57.652Z,60.70
2023-02-22T18:56:30.397Z,77.00
2023-02-22T18:59:01.639Z,70.60
2023-02-22T19:01:31.001Z,68.70
2023-02-22T19:04:00.800Z,55.30
2023-02-22T19:06:28.876Z,78.80
2023-02-22T19:09:03.594Z,56.00
2023-02-22T19:11:34.851Z,56.80
2023-02-22T19:14:07.994Z,51.40
2023-02-22T19:16:35.383Z,52.70
2023-02-22T19:19:08.677Z,51.40
2023-02-22T19:21:39.517Z,55.20
2023-02-22T19:24:08.953Z,60.80
2023-02-22T19:26:37.297Z,54.60
2023-02-22T19:29:08.632Z,53.80
2023-02-22T19:31:36.752Z,47.00
2023-02-22T19:34:10.046Z,44.00
2023-02-22T19:36:48.590Z,43.30
2023-02-22T19:41:53.221Z,66.50
2023-02-22T19:44:21.649Z,62.60
2023-02-22T19:46:51.462Z,61.30
2023-02-22T19:49:19.834Z,75.10
2023-02-22T19:51:48.015Z,69.50
2023-02-22T19:54:18.556Z,60.40
2023-02-22T19:56:52.150Z,66.30
2023-02-22T19:59:24.241Z,69.30
2023-02-22T20:01:55.172Z,63.40
2023-02-22T20:04:25.077Z,75.30
2023-02-22T20:07:02.075Z,82.50
2023-02-22T20:09:37.484Z,84.60
2023-02-22T20:12:06.678Z,88.10
2023-02-22T20:14:35.681Z,96.60
2023-02-22T20:17:07.301Z,101.60
2023-02-22T20:19:38.264Z,146.80
2023-02-22T20:22:09.050Z,126.50
2023-02-22T20:24:37.596Z,148.50
2023-02-22T20:27:10.008Z,123.40
2023-02-22T20:29:37.509Z,111.00
2023-02-22T20:32:08.301Z,80.30
2023-02-22T20:34:37.456Z,81.80
2023-02-22T20:37:05.747Z,88.00
2023-02-22T20:39:35.020Z,84.60
2023-02-22T20:42:09.444Z,81.90
2023-02-22T20:44:38.843Z,71.10
2023-02-22T20:47:08.706Z,65.90
2023-02-22T20:49:38.788Z,69.80
2023-02-22T20:52:07.160Z,73.60
2023-02-22T20:54:37.270Z,69.30
2023-02-22T20:57:09.662Z,69.60
2023-02-22T20:59:36.617Z,70.70
2023-02-22T21:02:05.895Z,72.60
2023-02-22T21:04:34.595Z,85.30
2023-02-22T21:07:02.762Z,73.80
2023-02-22T21:09:33.848Z,71.40
2023-02-22T21:12:01.983Z,68.10
2023-02-22T21:14:32.961Z,69.70
2023-02-22T21:17:03.476Z,71.10
2023-02-22T21:19:33.051Z,63.40
2023-02-22T21:22:03.863Z,64.30
2023-02-22T21:24:32.377Z,46.70
2023-02-22T21:27:01.571Z,54.20
2023-02-22T21:29:29.726Z,55.80
2023-02-22T21:31:59.245Z,54.90
2023-02-22T21:34:26.797Z,57.80
2023-02-22T21:36:54.464Z,43.20
2023-02-22T21:39:23.249Z,39.50
2023-02-22T21:41:52.545Z,30.30
2023-02-22T21:44:19.797Z,30.20
2023-02-22T21:46:51.265Z,29.30
2023-02-22T21:49:23.227Z,31.90
2023-02-22T21:51:51.852Z,25.60
2023-02-22T21:54:19.060Z,33.00
2023-02-22T21:56:46.712Z,30.30
2023-02-22T21:59:14.911Z,33.00
2023-02-22T22:01:50.254Z,61.30
2023-02-22T22:04:21.391Z,97.20
2023-02-22T22:06:50.913Z,84.90
2023-02-22T22:09:20.916Z,50.60
2023-02-22T22:11:49.862Z,48.10
2023-02-22T22:14:19.013Z,59.30
2023-02-22T22:16:47.252Z,74.20
2023-02-22T22:19:14.298Z,46.10
2023-02-22T22:21:41.547Z,32.90
2023-02-22T22:24:09.409Z,35.10
2023-02-22T22:26:36.990Z,27.80
2023-02-22T22:29:04.692Z,25.20
2023-02-22T22:31:31.678Z,22.80
2023-02-22T22:33:58.830Z,28.30
2023-02-22T22:36:27.130Z,28.80
2023-02-22T22:38:57.662Z,27.70
2023-02-22T22:41:24.815Z,29.40
2023-02-22T22:43:54.113Z,27.50
2023-02-22T22:46:21.655Z,32.80
2023-02-22T22:48:48.620Z,28.20
2023-02-22T22:51:20.777Z,27.70
2023-02-22T22:53:48.612Z,28.10
2023-02-22T22:56:17.667Z,29.70
2023-02-22T22:58:52.111Z,37.20
2023-02-22T23:01:26.921Z,26.60
2023-02-22T23:04:01.547Z,25.50
2023-02-22T23:06:33.270Z,24.10
2023-02-22T23:09:01.894Z,30.80
2023-02-22T23:11:29.686Z,26.70
2023-02-22T23:13:56.652Z,27.30
2023-02-22T23:16:24.172Z,27.20
2023-02-22T23:18:51.471Z,24.60
2023-02-22T23:21:19.792Z,28.00
2023-02-22T23:23:53.016Z,31.60
2023-02-22T23:26:19.728Z,23.50
2023-02-22T23:28:47.220Z,31.50
2023-02-22T23:31:15.714Z,34.40
2023-02-22T23:33:43.573Z,33.00
2023-02-22T23:36:12.581Z,32.40
2023-02-22T23:38:39.909Z,30.30
2023-02-22T23:41:09.037Z,25.80
2023-02-22T23:43:40.446Z,22.90
2023-02-22T23:46:11.815Z,23.20
2023-02-22T23:48:46.796Z,27.90
2023-02-22T23:51:14.581Z,27.90
2023-02-22T23:53:46.191Z,25.60
2023-02-22T23:56:14.385Z,23.70
2023-02-22T23:58:42.418Z,24.70
